Time;durP1;ratioP1;P1;durP2;ratioP2;P2;SDS_P1;SDS_P2;PMS_P1;PMS_P2;Temp;Humidity;BMP_temperature;BMP_pressure;BME280_temperature;BME280_humidity;BME280_pressure;Samples;Min_cycle;Max_cycle;Signal;HPM_P1;HPM_P2
2023/10/26 00:00:44;;;;;;;8.77;6.30;;;10.30;99.90;;;;;;5024740;28;20083;-69
2023/10/26 00:03:10;;;;;;;9.30;6.25;;;10.30;99.90;;;;;;5018274;28;20048;-68
2023/10/26 00:05:36;;;;;;;11.32;6.93;;;10.30;99.90;;;;;;5029135;28;20018;-68
2023/10/26 00:08:01;;;;;;;11.90;7.63;;;10.30;99.90;;;;;;5026815;28;20052;-68
2023/10/26 00:10:27;;;;;;;13.82;8.73;;;10.30;99.90;;;;;;5027484;28;20510;-68
2023/10/26 00:12:52;;;;;;;11.57;7.50;;;10.30;99.90;;;;;;5026862;28;20037;-68
2023/10/26 00:15:18;;;;;;;11.70;7.22;;;10.30;99.90;;;;;;5021149;28;20037;-68
2023/10/26 00:17:43;;;;;;;12.65;7.60;;;10.30;99.90;;;;;;5032434;28;20091;-69
2023/10/26 00:20:10;;;;;;;10.75;6.22;;;10.20;99.90;;;;;;5024439;28;20033;-68
2023/10/26 00:22:35;;;;;;;13.93;8.50;;;10.20;99.90;;;;;;5024931;28;20037;-68
2023/10/26 00:25:01;;;;;;;11.98;7.63;;;10.20;99.90;;;;;;5030275;28;20414;-68
2023/10/26 00:27:26;;;;;;;13.38;6.90;;;10.20;99.90;;;;;;5027036;28;20025;-68
2023/10/26 00:29:52;;;;;;;14.88;8.13;;;10.20;99.90;;;;;;5022357;28;20117;-69
2023/10/26 00:32:17;;;;;;;14.63;9.20;;;10.20;99.90;;;;;;5027756;28;20022;-68
2023/10/26 00:34:43;;;;;;;14.35;9.13;;;10.20;99.90;;;;;;5026804;28;20048;-68
2023/10/26 00:37:09;;;;;;;17.88;8.77;;;10.20;99.90;;;;;;5028188;28;20387;-68
2023/10/26 00:39:35;;;;;;;17.67;8.40;;;10.20;99.90;;;;;;5028309;28;20025;-68
2023/10/26 00:42:00;;;;;;;11.73;7.45;;;10.20;99.90;;;;;;5024987;28;20030;-68
2023/10/26 00:44:26;;;;;;;10.30;7.05;;;10.20;99.90;;;;;;5024258;28;20045;-68
2023/10/26 00:46:54;;;;;;;11.73;6.85;;;10.20;99.90;;;;;;5026059;28;20033;-68
2023/10/26 00:49:21;;;;;;;11.30;7.25;;;10.20;99.90;;;;;;5030018;28;20029;-68
2023/10/26 00:51:50;;;;;;;10.52;6.85;;;10.20;99.90;;;;;;5027491;28;20044;-68
2023/10/26 00:54:19;;;;;;;13.13;6.70;;;10.20;99.90;;;;;;5031018;28;20025;-68
2023/10/26 00:56:46;;;;;;;13.80;8.23;;;10.10;99.90;;;;;;5030665;28;20057;-68
2023/10/26 00:59:13;;;;;;;14.02;7.90;;;10.10;99.90;;;;;;5027604;28;20116;-68
2023/10/26 01:01:39;;;;;;;14.40;8.85;;;10.10;99.90;;;;;;5031625;28;20041;-68
2023/10/26 01:04:06;;;;;;;16.20;8.20;;;10.10;99.90;;;;;;5006880;28;20069;-68
2023/10/26 01:06:32;;;;;;;13.25;8.05;;;10.10;99.90;;;;;;5014027;28;20495;-68
2023/10/26 01:08:58;;;;;;;10.20;6.28;;;10.10;99.90;;;;;;5014838;28;20048;-67
2023/10/26 01:11:23;;;;;;;9.13;5.78;;;10.10;99.90;;;;;;5012972;28;20041;-67
2023/10/26 01:13:49;;;;;;;14.30;6.07;;;10.00;99.90;;;;;;5016146;28;20112;-69
2023/10/26 01:16:15;;;;;;;10.25;4.93;;;10.00;99.90;;;;;;5011833;28;20025;-70
2023/10/26 01:18:41;;;;;;;9.07;4.70;;;10.00;99.90;;;;;;5017152;28;20044;-69
2023/10/26 01:21:08;;;;;;;8.90;5.25;;;10.00;99.90;;;;;;5014759;28;20022;-69
2023/10/26 01:23:34;;;;;;;10.68;5.68;;;10.00;99.90;;;;;;5015550;28;20030;-69
2023/10/26 01:26:00;;;;;;;8.63;5.50;;;10.00;99.90;;;;;;5014483;28;21204;-69
2023/10/26 01:28:25;;;;;;;10.07;6.22;;;10.00;99.90;;;;;;5016024;28;20396;-69
2023/10/26 01:30:52;;;;;;;11.00;6.47;;;10.00;99.90;;;;;;5016046;28;20511;-69
2023/10/26 01:33:18;;;;;;;11.38;7.15;;;10.00;99.90;;;;;;5017387;28;20029;-69
2023/10/26 01:35:45;;;;;;;12.50;7.20;;;10.00;99.90;;;;;;5020763;28;20039;-69
2023/10/26 01:38:12;;;;;;;14.50;9.00;;;10.00;99.90;;;;;;5017641;28;20034;-69
2023/10/26 01:40:38;;;;;;;16.33;9.38;;;10.00;99.90;;;;;;5020823;28;20446;-69
2023/10/26 01:43:03;;;;;;;17.85;9.60;;;10.00;99.90;;;;;;5019672;28;20037;-69
2023/10/26 01:45:29;;;;;;;19.00;10.23;;;10.00;99.90;;;;;;5019078;28;21505;-69
2023/10/26 01:47:55;;;;;;;21.17;11.40;;;10.00;99.90;;;;;;5019412;28;20088;-69
2023/10/26 01:50:21;;;;;;;18.90;10.35;;;10.00;99.90;;;;;;5019765;28;20257;-69
2023/10/26 01:52:46;;;;;;;22.08;11.63;;;10.00;99.90;;;;;;5019769;28;20036;-69
2023/10/26 01:55:12;;;;;;;24.63;11.75;;;10.00;99.90;;;;;;5018660;28;20421;-69
2023/10/26 01:57:38;;;;;;;20.85;11.73;;;10.00;99.90;;;;;;5019835;28;20034;-69
2023/10/26 02:00:04;;;;;;;22.10;12.88;;;10.00;99.90;;;;;;5018281;28;20097;-69
2023/10/26 02:02:30;;;;;;;24.08;11.38;;;10.00;99.90;;;;;;5018933;28;20038;-68
2023/10/26 02:04:55;;;;;;;27.42;13.00;;;10.00;99.90;;;;;;5007587;28;20143;-69
2023/10/26 02:07:21;;;;;;;23.73;13.38;;;9.90;99.90;;;;;;5015910;28;20125;-69
2023/10/26 02:09:46;;;;;;;24.17;12.77;;;9.90;99.90;;;;;;5019093;28;20717;-69
2023/10/26 02:12:12;;;;;;;23.58;12.43;;;9.90;99.90;;;;;;5017914;28;20104;-69
2023/10/26 02:14:38;;;;;;;23.48;12.27;;;9.90;99.90;;;;;;5020969;28;20161;-69
2023/10/26 02:17:05;;;;;;;23.90;13.70;;;9.90;99.90;;;;;;5017281;28;20022;-69
2023/10/26 02:19:30;;;;;;;24.75;12.73;;;9.90;99.90;;;;;;5017087;28;20029;-69
2023/10/26 02:21:56;;;;;;;26.33;14.73;;;9.90;99.90;;;;;;5018433;28;20044;-69
2023/10/26 02:24:22;;;;;;;27.33;13.23;;;9.90;99.90;;;;;;5019259;28;20038;-69
2023/10/26 02:26:47;;;;;;;28.10;14.32;;;9.90;99.90;;;;;;5018655;28;20136;-69
2023/10/26 02:29:13;;;;;;;26.92;13.10;;;9.90;99.90;;;;;;5019906;28;20026;-66
2023/10/26 02:31:38;;;;;;;23.65;12.20;;;9.90;99.90;;;;;;5016639;28;20097;-69
2023/10/26 02:34:04;;;;;;;24.80;12.77;;;9.80;99.90;;;;;;5019375;28;20716;-69
2023/10/26 02:36:30;;;;;;;32.13;14.48;;;9.90;99.90;;;;;;5019616;28;20037;-69
2023/10/26 02:38:56;;;;;;;21.52;11.85;;;9.90;99.90;;;;;;5017373;28;20466;-69
2023/10/26 02:41:22;;;;;;;19.95;10.43;;;9.90;99.90;;;;;;5018259;28;20111;-69
2023/10/26 02:43:47;;;;;;;21.10;11.15;;;9.90;99.90;;;;;;5017542;28;20395;-69
2023/10/26 02:46:13;;;;;;;19.95;9.73;;;9.80;99.90;;;;;;5017076;28;20048;-69
2023/10/26 02:48:39;;;;;;;18.30;9.77;;;9.90;99.90;;;;;;5018002;28;20030;-69
2023/10/26 02:51:05;;;;;;;22.88;11.07;;;9.80;99.90;;;;;;5017363;28;20464;-67
2023/10/26 02:53:31;;;;;;;19.08;9.82;;;9.90;99.90;;;;;;5020494;28;20033;-68
2023/10/26 02:55:57;;;;;;;23.35;11.77;;;9.90;99.90;;;;;;5019138;28;20025;-67
2023/10/26 02:58:22;;;;;;;22.33;12.43;;;9.90;99.90;;;;;;5018387;28;20129;-67
2023/10/26 03:00:48;;;;;;;23.35;12.25;;;9.90;99.90;;;;;;5018461;28;20105;-68
2023/10/26 03:03:14;;;;;;;26.88;13.75;;;9.90;99.90;;;;;;5001176;28;20021;-68
2023/10/26 03:05:40;;;;;;;26.60;13.77;;;9.90;99.90;;;;;;5016855;28;20104;-67
2023/10/26 03:08:05;;;;;;;25.38;14.20;;;9.90;99.90;;;;;;5019785;28;20036;-68
2023/10/26 03:10:31;;;;;;;29.00;15.85;;;9.80;99.90;;;;;;5017778;28;20033;-68
2023/10/26 03:12:57;;;;;;;28.52;15.23;;;9.80;99.90;;;;;;5014433;28;20039;-68
2023/10/26 03:15:23;;;;;;;29.92;14.30;;;9.90;99.90;;;;;;5016620;28;20034;-68
2023/10/26 03:17:49;;;;;;;31.48;16.27;;;9.90;99.90;;;;;;5016884;28;20407;-68
2023/10/26 03:20:14;;;;;;;30.80;16.08;;;9.90;99.90;;;;;;5016301;28;20033;-68
2023/10/26 03:22:40;;;;;;;29.35;15.10;;;9.90;99.90;;;;;;5018651;28;20762;-68
2023/10/26 03:25:06;;;;;;;29.27;15.05;;;9.90;99.90;;;;;;5016951;28;20033;-68
2023/10/26 03:27:32;;;;;;;29.08;15.18;;;9.80;99.90;;;;;;5016790;28;20072;-67
2023/10/26 03:29:58;;;;;;;31.00;15.70;;;9.90;99.90;;;;;;5017535;28;20045;-67
2023/10/26 03:32:24;;;;;;;34.88;17.35;;;9.90;99.90;;;;;;5016326;28;20031;-67
2023/10/26 03:34:50;;;;;;;33.08;17.15;;;9.90;99.90;;;;;;5015606;28;20095;-67
2023/10/26 03:37:16;;;;;;;31.70;17.00;;;9.90;99.90;;;;;;5016296;28;20072;-70
2023/10/26 03:39:41;;;;;;;39.53;17.58;;;9.90;99.90;;;;;;5018347;28;20040;-68
2023/10/26 03:42:07;;;;;;;32.92;15.82;;;9.90;99.90;;;;;;5016500;28;20479;-68
2023/10/26 03:44:33;;;;;;;34.35;17.08;;;9.90;99.90;;;;;;5016094;28;20659;-68
2023/10/26 03:46:58;;;;;;;31.48;16.95;;;9.90;99.90;;;;;;5034516;28;20119;-67
2023/10/26 03:49:24;;;;;;;35.28;17.58;;;9.90;99.90;;;;;;5016546;28;20030;-68
2023/10/26 03:51:50;;;;;;;31.90;16.17;;;9.90;99.90;;;;;;5017615;28;20080;-69
2023/10/26 03:54:15;;;;;;;28.10;15.82;;;9.80;99.90;;;;;;5017465;28;20096;-68
2023/10/26 03:56:41;;;;;;;27.27;14.80;;;9.80;99.90;;;;;;5015081;28;20875;-68
2023/10/26 03:59:07;;;;;;;31.98;14.77;;;9.80;99.90;;;;;;5019140;28;20041;-68
2023/10/26 04:01:35;;;;;;;28.60;14.90;;;9.80;99.90;;;;;;5018270;28;20033;-68
2023/10/26 04:04:01;;;;;;;30.83;14.82;;;9.80;99.90;;;;;;5001369;28;20050;-68
2023/10/26 04:06:28;;;;;;;25.40;14.75;;;9.80;99.90;;;;;;5017066;28;20411;-68
2023/10/26 04:08:56;;;;;;;29.67;14.05;;;9.70;99.90;;;;;;5015781;28;20621;-68
2023/10/26 04:11:22;;;;;;;24.80;13.35;;;9.70;99.90;;;;;;5017107;28;20031;-68
2023/10/26 04:13:47;;;;;;;26.27;13.68;;;9.70;99.90;;;;;;5016605;28;20038;-68
2023/10/26 04:16:13;;;;;;;25.25;13.38;;;9.70;99.90;;;;;;5016194;28;21282;-68
2023/10/26 04:18:39;;;;;;;24.67;13.70;;;9.70;99.90;;;;;;5017469;28;20039;-68
2023/10/26 04:21:04;;;;;;;29.75;14.68;;;9.70;99.90;;;;;;5015570;28;20076;-68
2023/10/26 04:23:30;;;;;;;28.23;14.57;;;9.70;99.90;;;;;;5033525;28;20021;-68
2023/10/26 04:25:55;;;;;;;28.58;14.88;;;9.70;99.90;;;;;;5015681;28;20025;-68
2023/10/26 04:28:21;;;;;;;29.15;15.02;;;9.70;99.90;;;;;;5017249;28;20057;-68
2023/10/26 04:30:47;;;;;;;30.10;14.60;;;9.70;99.90;;;;;;5016271;28;20038;-69
2023/10/26 04:33:14;;;;;;;31.00;13.95;;;9.70;99.90;;;;;;5016238;28;20025;-69
2023/10/26 04:35:47;;;;;;;34.95;15.65;;;9.70;99.90;;;;;;5015221;28;20116;-68
2023/10/26 04:38:12;;;;;;;35.83;18.33;;;9.70;99.90;;;;;;5015365;28;20041;-68
2023/10/26 04:40:39;;;;;;;34.05;17.60;;;9.70;99.90;;;;;;5015539;28;20092;-68
2023/10/26 04:43:06;;;;;;;214.02;85.60;;;9.70;99.90;;;;;;5016151;28;20041;-68
2023/10/26 04:45:32;;;;;;;224.00;78.18;;;9.70;99.90;;;;;;5014720;28;20562;-68
2023/10/26 04:47:58;;;;;;;173.15;60.03;;;9.70;99.90;;;;;;5016611;28;20030;-69
2023/10/26 04:50:27;;;;;;;237.65;77.60;;;9.70;99.90;;;;;;5014436;28;20025;-68
2023/10/26 04:52:53;;;;;;;97.40;36.67;;;9.70;99.90;;;;;;5019342;28;20434;-68
2023/10/26 04:55:19;;;;;;;56.55;24.80;;;9.60;99.90;;;;;;5016464;28;20124;-68
2023/10/26 04:57:45;;;;;;;50.65;21.15;;;9.70;99.90;;;;;;5014242;28;20037;-68
2023/10/26 05:00:11;;;;;;;31.92;16.23;;;9.60;99.90;;;;;;5014222;28;20072;-68
2023/10/26 05:02:37;;;;;;;32.00;16.13;;;9.60;99.90;;;;;;5015703;28;20018;-68
2023/10/26 05:05:04;;;;;;;28.77;14.02;;;9.60;99.90;;;;;;5003952;28;20053;-68
2023/10/26 05:07:30;;;;;;;32.10;15.98;;;9.60;99.90;;;;;;5016382;28;20359;-68
2023/10/26 05:09:56;;;;;;;29.60;15.10;;;9.60;99.90;;;;;;5020930;28;20100;-69
2023/10/26 05:12:22;;;;;;;27.42;13.98;;;9.60;99.90;;;;;;5017466;28;20479;-68
2023/10/26 05:14:47;;;;;;;26.52;14.68;;;9.60;99.90;;;;;;5018027;28;20107;-68
2023/10/26 05:17:13;;;;;;;27.48;14.70;;;9.60;99.90;;;;;;5021540;28;20491;-68
2023/10/26 05:19:39;;;;;;;70.50;35.10;;;9.60;99.90;;;;;;5018745;28;20492;-68
2023/10/26 05:22:04;;;;;;;65.43;31.38;;;9.60;99.90;;;;;;5018322;28;20030;-68
2023/10/26 05:24:30;;;;;;;51.33;26.80;;;9.60;99.90;;;;;;5017506;28;20029;-68
2023/10/26 05:26:56;;;;;;;52.72;26.63;;;9.60;99.90;;;;;;5019029;28;20037;-68
2023/10/26 05:29:21;;;;;;;45.33;22.92;;;9.60;99.90;;;;;;5017804;28;20033;-68
2023/10/26 05:31:47;;;;;;;35.53;19.55;;;9.60;99.90;;;;;;5019147;28;20033;-68
2023/10/26 05:34:12;;;;;;;31.73;16.75;;;9.60;99.90;;;;;;5018523;28;20033;-69
2023/10/26 05:36:39;;;;;;;31.58;16.50;;;9.60;99.90;;;;;;5018870;28;20029;-68
2023/10/26 05:39:05;;;;;;;29.95;14.93;;;9.60;99.90;;;;;;5018147;28;20781;-68
2023/10/26 05:41:30;;;;;;;29.25;15.90;;;9.60;99.90;;;;;;5020277;28;20037;-68
2023/10/26 05:43:56;;;;;;;34.28;15.82;;;9.60;99.90;;;;;;5020333;28;20033;-68
2023/10/26 05:46:21;;;;;;;32.55;15.38;;;9.60;99.90;;;;;;5017244;28;20556;-68
2023/10/26 05:48:47;;;;;;;34.75;17.00;;;9.50;99.90;;;;;;5018500;28;20069;-68
2023/10/26 05:51:12;;;;;;;34.75;16.25;;;9.40;99.90;;;;;;5018915;28;20029;-68
2023/10/26 05:53:38;;;;;;;34.22;15.70;;;9.30;99.90;;;;;;5019277;28;20083;-68
2023/10/26 05:56:04;;;;;;;30.55;15.40;;;9.20;99.90;;;;;;5018741;28;20659;-68
2023/10/26 05:58:30;;;;;;;33.15;15.80;;;9.00;99.90;;;;;;5017668;28;20113;-68
2023/10/26 06:00:56;;;;;;;35.30;16.45;;;8.90;99.90;;;;;;5018105;28;20702;-68
2023/10/26 06:03:21;;;;;;;36.75;16.17;;;8.90;99.90;;;;;;5019250;28;20481;-68
2023/10/26 06:05:50;;;;;;;34.63;16.90;;;8.80;99.90;;;;;;5001402;28;20053;-68
2023/10/26 06:08:16;;;;;;;39.67;18.10;;;8.70;99.90;;;;;;5020992;28;20030;-68
2023/10/26 06:10:41;;;;;;;46.60;17.20;;;8.70;99.90;;;;;;5019253;28;20052;-68
2023/10/26 06:13:07;;;;;;;39.42;16.73;;;8.60;99.90;;;;;;5036589;28;20060;-68
2023/10/26 06:15:36;;;;;;;38.45;16.88;;;8.60;99.90;;;;;;5018641;28;20116;-68
2023/10/26 06:18:02;;;;;;;43.63;17.27;;;8.50;99.90;;;;;;5018499;28;20057;-68
2023/10/26 06:20:28;;;;;;;52.88;20.10;;;8.50;99.90;;;;;;5018705;28;20378;-68
2023/10/26 06:22:54;;;;;;;46.15;19.33;;;8.50;99.90;;;;;;5018447;28;20033;-68
2023/10/26 06:25:20;;;;;;;47.35;19.85;;;8.50;99.90;;;;;;5021975;28;20033;-68
2023/10/26 06:27:49;;;;;;;51.50;18.75;;;8.50;99.90;;;;;;5018394;28;20022;-68
2023/10/26 06:30:17;;;;;;;51.67;19.02;;;8.60;99.90;;;;;;5017894;28;20029;-68
2023/10/26 06:32:43;;;;;;;50.30;19.83;;;8.60;99.90;;;;;;5018912;28;20057;-68
2023/10/26 06:35:10;;;;;;;52.53;20.23;;;8.60;99.90;;;;;;5037184;28;20475;-68
2023/10/26 06:37:37;;;;;;;51.08;19.25;;;8.60;99.90;;;;;;5018231;28;20083;-68
2023/10/26 06:40:04;;;;;;;49.67;19.60;;;8.70;99.90;;;;;;5017792;28;20040;-68
2023/10/26 06:42:29;;;;;;;44.10;18.17;;;8.70;99.90;;;;;;5018335;28;20125;-69
2023/10/26 06:44:55;;;;;;;53.08;17.67;;;8.80;99.90;;;;;;5018248;28;20403;-68
2023/10/26 06:47:21;;;;;;;51.83;20.73;;;8.80;99.90;;;;;;5017446;28;20025;-69
2023/10/26 06:49:47;;;;;;;44.47;19.70;;;8.80;99.90;;;;;;5017152;28;20112;-68
2023/10/26 06:52:12;;;;;;;50.88;19.15;;;8.90;99.90;;;;;;5017910;28;20456;-68
2023/10/26 06:54:38;;;;;;;57.97;20.58;;;9.00;99.90;;;;;;5018129;28;20029;-68
2023/10/26 06:57:04;;;;;;;58.58;22.23;;;9.10;99.90;;;;;;5019668;28;20487;-68
2023/10/26 06:59:29;;;;;;;60.50;22.73;;;9.20;99.90;;;;;;5018220;28;20408;-68
2023/10/26 07:01:56;;;;;;;55.25;22.55;;;9.20;99.90;;;;;;5017044;28;20030;-68
2023/10/26 07:04:21;;;;;;;51.00;21.73;;;9.40;99.90;;;;;;5015055;28;20025;-69
2023/10/26 07:06:47;;;;;;;56.67;23.17;;;9.50;99.90;;;;;;5002359;28;20061;-68
2023/10/26 07:09:13;;;;;;;43.85;19.15;;;9.60;99.90;;;;;;5019492;28;20422;-68
2023/10/26 07:11:39;;;;;;;45.47;20.08;;;9.60;99.90;;;;;;5032144;28;20029;-68
2023/10/26 07:14:04;;;;;;;53.65;21.48;;;9.70;99.90;;;;;;5019560;28;20022;-69
2023/10/26 07:16:30;;;;;;;42.15;18.80;;;9.70;99.90;;;;;;5018834;28;20045;-69
2023/10/26 07:18:55;;;;;;;41.67;21.27;;;9.70;99.90;;;;;;5014842;28;20045;-68
2023/10/26 07:21:21;;;;;;;40.50;20.67;;;9.80;99.90;;;;;;5020133;28;20030;-69
2023/10/26 07:23:47;;;;;;;37.90;20.23;;;9.80;99.90;;;;;;5016880;28;20029;-69
2023/10/26 07:26:18;;;;;;;38.28;19.00;;;9.80;99.90;;;;;;5018160;28;20037;-69
2023/10/26 07:28:44;;;;;;;43.78;18.38;;;10.00;99.90;;;;;;5014584;28;20049;-68
2023/10/26 07:31:17;;;;;;;40.35;18.90;;;10.00;99.90;;;;;;5014186;28;20049;-68
2023/10/26 07:33:43;;;;;;;40.95;18.92;;;10.20;99.90;;;;;;5019650;28;20028;-68
2023/10/26 07:36:10;;;;;;;41.03;19.73;;;10.20;99.90;;;;;;5017911;28;20034;-68
2023/10/26 07:38:35;;;;;;;32.38;16.98;;;10.20;99.90;;;;;;5020123;28;20053;-68
2023/10/26 07:41:03;;;;;;;33.38;16.95;;;10.10;99.90;;;;;;5015980;28;20056;-68
2023/10/26 07:43:29;;;;;;;29.02;16.42;;;10.00;99.90;;;;;;5016531;28;20047;-68
2023/10/26 07:45:55;;;;;;;38.70;17.50;;;10.00;99.90;;;;;;5016269;28;20030;-69
2023/10/26 07:48:20;;;;;;;42.65;19.92;;;10.00;99.90;;;;;;5020405;28;20034;-68
2023/10/26 07:50:46;;;;;;;32.97;16.08;;;10.10;99.90;;;;;;5016529;28;20053;-68
2023/10/26 07:53:14;;;;;;;51.90;17.92;;;10.20;99.90;;;;;;5015234;28;20482;-68
2023/10/26 07:55:39;;;;;;;53.35;16.90;;;10.20;99.90;;;;;;5019498;28;20076;-68
2023/10/26 07:58:05;;;;;;;35.72;17.13;;;10.20;99.90;;;;;;5016320;28;20068;-68
2023/10/26 08:00:31;;;;;;;28.25;15.93;;;10.30;99.90;;;;;;5017490;28;20446;-69
2023/10/26 08:02:58;;;;;;;34.88;17.15;;;10.40;99.90;;;;;;5018218;28;20030;-69
2023/10/26 08:05:23;;;;;;;36.05;17.90;;;10.40;99.90;;;;;;5005038;28;20048;-69
2023/10/26 08:07:49;;;;;;;44.35;23.25;;;10.40;99.90;;;;;;5016905;28;20029;-69
2023/10/26 08:10:15;;;;;;;46.08;25.05;;;10.50;99.90;;;;;;5016063;28;20079;-69
2023/10/26 08:12:40;;;;;;;37.92;21.65;;;10.60;99.90;;;;;;5034910;28;20042;-69
2023/10/26 08:15:07;;;;;;;39.35;21.88;;;10.70;99.90;;;;;;5017170;28;20084;-69
2023/10/26 08:17:37;;;;;;;31.10;17.92;;;10.80;99.90;;;;;;5015419;28;20368;-68
2023/10/26 08:20:07;;;;;;;25.98;14.90;;;10.90;99.90;;;;;;5015240;28;20037;-68
2023/10/26 08:22:33;;;;;;;28.15;16.70;;;10.90;99.90;;;;;;5032309;28;20060;-68
2023/10/26 08:24:59;;;;;;;26.58;16.33;;;11.00;99.90;;;;;;5015711;28;20125;-68
2023/10/26 08:27:25;;;;;;;27.48;16.48;;;11.10;99.90;;;;;;5015554;28;20511;-68
2023/10/26 08:29:51;;;;;;;29.95;15.18;;;11.10;99.90;;;;;;5017244;28;20029;-68
2023/10/26 08:32:17;;;;;;;26.08;14.77;;;11.20;99.90;;;;;;5016666;28;20037;-68
2023/10/26 08:34:44;;;;;;;25.60;15.35;;;11.30;99.90;;;;;;5018795;28;20091;-69
2023/10/26 08:37:10;;;;;;;23.92;15.43;;;11.30;99.90;;;;;;5016128;28;20038;-68
2023/10/26 08:39:36;;;;;;;22.90;12.85;;;11.30;99.90;;;;;;5013817;28;20111;-69
2023/10/26 08:42:02;;;;;;;25.10;13.38;;;11.30;99.90;;;;;;5017884;28;20553;-69
2023/10/26 08:44:29;;;;;;;24.23;14.10;;;11.30;99.90;;;;;;5020842;28;20193;-69
2023/10/26 08:47:04;;;;;;;27.60;14.68;;;11.40;99.90;;;;;;5020977;28;20033;-69
2023/10/26 08:49:31;;;;;;;21.83;12.27;;;11.40;99.90;;;;;;5022343;28;20101;-69
2023/10/26 08:51:57;;;;;;;20.42;12.90;;;11.60;99.90;;;;;;5020891;28;20038;-69
2023/10/26 08:54:23;;;;;;;21.88;11.95;;;11.70;99.90;;;;;;5018605;28;20076;-69
2023/10/26 08:56:48;;;;;;;21.52;12.50;;;11.90;99.90;;;;;;5016961;28;20029;-69
2023/10/26 08:59:14;;;;;;;17.00;10.45;;;12.10;99.90;;;;;;5021034;28;20434;-69
2023/10/26 09:01:45;;;;;;;17.42;10.32;;;12.40;99.90;;;;;;5020879;28;20029;-69
2023/10/26 09:04:11;;;;;;;19.80;12.35;;;12.40;99.90;;;;;;5018045;28;20471;-68
2023/10/26 09:06:44;;;;;;;21.23;11.90;;;12.40;99.90;;;;;;5005236;28;20073;-69
2023/10/26 09:09:09;;;;;;;20.70;12.95;;;12.50;99.90;;;;;;5022589;28;20124;-69
2023/10/26 09:11:35;;;;;;;21.25;11.77;;;12.30;99.90;;;;;;5017678;28;20487;-69
2023/10/26 09:14:20;;;;;;;22.90;14.40;;;12.20;99.90;;;;;;5019481;28;20620;-68
2023/10/26 09:16:47;;;;;;;19.80;13.02;;;12.10;99.90;;;;;;5031647;28;20036;-68
2023/10/26 09:19:14;;;;;;;25.52;14.18;;;12.00;99.90;;;;;;5019038;28;20069;-69
2023/10/26 09:21:49;;;;;;;22.10;12.93;;;11.90;99.90;;;;;;5019766;28;20033;-69
2023/10/26 09:24:25;;;;;;;19.33;12.93;;;11.90;99.90;;;;;;5018452;28;20044;-69
2023/10/26 09:26:55;;;;;;;20.42;12.85;;;11.90;99.90;;;;;;5017628;28;20088;-69
2023/10/26 09:29:34;;;;;;;20.17;12.75;;;11.80;99.90;;;;;;5020620;28;20022;-68
2023/10/26 09:31:59;;;;;;;29.45;18.73;;;11.70;99.90;;;;;;5020235;28;20053;-69
2023/10/26 09:34:27;;;;;;;35.58;19.17;;;11.70;99.90;;;;;;5039661;28;20625;-69
2023/10/26 09:37:03;;;;;;;26.02;16.80;;;11.60;99.90;;;;;;5019478;28;20030;-69
2023/10/26 09:39:33;;;;;;;25.15;16.15;;;11.60;99.90;;;;;;5018115;28;20115;-69
2023/10/26 09:42:01;;;;;;;23.85;15.95;;;11.50;99.90;;;;;;5018061;28;20527;-69
2023/10/26 09:44:30;;;;;;;21.92;14.15;;;11.60;99.90;;;;;;5034683;28;20130;-69
2023/10/26 09:46:56;;;;;;;20.38;13.10;;;11.60;99.90;;;;;;5036092;28;20034;-69
2023/10/26 09:49:24;;;;;;;20.15;13.55;;;11.70;99.90;;;;;;5020361;28;20486;-69
2023/10/26 09:51:50;;;;;;;24.23;13.77;;;11.80;99.90;;;;;;4960358;28;20038;-69
2023/10/26 09:54:24;;;;;;;21.88;13.90;;;12.00;99.90;;;;;;4997465;28;20034;-68
2023/10/26 09:57:12;;;;;;;24.55;13.25;;;12.10;99.90;;;;;;4992168;28;20038;-69
2023/10/26 09:59:37;;;;;;;24.48;13.45;;;12.20;99.90;;;;;;4973918;28;20463;-68
2023/10/26 10:02:16;;;;;;;22.00;13.80;;;12.40;99.90;;;;;;4971280;28;20132;-69
2023/10/26 10:04:42;;;;;;;22.55;14.20;;;12.50;99.90;;;;;;4981520;28;20134;-68
2023/10/26 10:07:08;;;;;;;26.20;15.27;;;12.50;99.90;;;;;;4993573;28;20026;-69
2023/10/26 10:10:04;;;;;;;24.50;13.75;;;12.30;99.90;;;;;;4966541;28;20411;-70
2023/10/26 10:12:30;;;;;;;21.17;13.68;;;12.20;99.90;;;;;;4982105;28;20038;-69
2023/10/26 10:15:09;;;;;;;24.92;15.18;;;12.20;99.90;;;;;;4987690;28;20042;-69
2023/10/26 10:17:44;;;;;;;35.13;19.05;;;12.40;99.90;;;;;;4988647;28;20029;-70
2023/10/26 10:20:22;;;;;;;22.48;15.00;;;12.50;99.90;;;;;;4988533;28;20030;-70
2023/10/26 10:22:49;;;;;;;27.23;15.15;;;12.50;99.90;;;;;;4986190;28;20560;-69
2023/10/26 10:25:17;;;;;;;24.30;15.43;;;12.40;99.90;;;;;;4943081;28;20469;-69
2023/10/26 10:27:49;;;;;;;21.63;14.55;;;12.40;99.90;;;;;;4986697;28;20700;-69
2023/10/26 10:30:19;;;;;;;30.52;19.25;;;12.70;99.90;;;;;;4984794;28;20128;-69
2023/10/26 10:32:44;;;;;;;23.27;14.75;;;12.80;99.90;;;;;;4987379;28;20034;-69
2023/10/26 10:35:28;;;;;;;27.08;16.05;;;12.90;99.90;;;;;;4987952;28;20042;-69
2023/10/26 10:38:18;;;;;;;24.73;15.57;;;13.00;99.90;;;;;;4987327;28;20116;-69
2023/10/26 10:40:58;;;;;;;25.52;15.20;;;13.10;99.90;;;;;;4986374;28;20562;-68
2023/10/26 10:43:45;;;;;;;20.23;12.70;;;13.20;99.90;;;;;;4986222;28;20121;-69
2023/10/26 10:46:13;;;;;;;25.67;15.55;;;13.00;99.90;;;;;;5002617;28;20038;-68
2023/10/26 10:48:54;;;;;;;20.17;14.02;;;13.00;99.90;;;;;;4987045;28;20044;-69
2023/10/26 10:51:19;;;;;;;21.05;13.32;;;13.00;99.90;;;;;;4986809;28;20037;-69
2023/10/26 10:53:50;;;;;;;20.17;12.70;;;13.00;99.90;;;;;;4984233;28;20407;-69
2023/10/26 10:56:16;;;;;;;16.63;11.27;;;13.00;99.90;;;;;;4986823;28;20062;-69
2023/10/26 10:58:41;;;;;;;22.08;11.05;;;13.20;99.90;;;;;;4985396;28;20132;-69
2023/10/26 11:01:07;;;;;;;17.67;11.93;;;13.20;99.90;;;;;;4988893;28;20109;-69
2023/10/26 11:03:32;;;;;;;24.27;13.35;;;13.50;99.90;;;;;;4985426;28;20037;-69
2023/10/26 11:05:58;;;;;;;16.63;10.73;;;13.70;99.90;;;;;;4984834;28;20033;-69
2023/10/26 11:08:25;;;;;;;118.03;56.05;;;13.70;99.90;;;;;;4969730;28;20745;-69
2023/10/26 11:10:51;;;;;;;15.38;11.48;;;13.60;99.90;;;;;;4986507;28;20030;-69
2023/10/26 11:13:21;;;;;;;13.65;8.82;;;13.80;99.90;;;;;;4985408;28;20495;-69
2023/10/26 11:15:47;;;;;;;13.07;7.78;;;13.80;99.90;;;;;;4983468;28;20026;-69
2023/10/26 11:18:13;;;;;;;10.25;7.90;;;13.60;99.90;;;;;;4983459;28;20048;-68
2023/10/26 11:20:45;;;;;;;15.68;10.13;;;13.40;99.90;;;;;;4981033;28;20049;-69
2023/10/26 11:23:12;;;;;;;15.20;10.70;;;13.20;99.90;;;;;;4984633;28;20034;-70
2023/10/26 11:25:38;;;;;;;11.32;7.93;;;13.20;99.90;;;;;;4983946;28;20411;-69
2023/10/26 11:28:04;;;;;;;13.40;7.90;;;13.10;99.90;;;;;;4985845;28;20080;-68
2023/10/26 11:30:44;;;;;;;32.28;16.98;;;13.10;99.90;;;;;;4987737;28;20570;-68
2023/10/26 11:33:09;;;;;;;22.60;12.35;;;13.20;99.90;;;;;;4988322;28;20022;-69
2023/10/26 11:35:42;;;;;;;23.67;12.25;;;13.10;99.90;;;;;;4988124;28;20487;-69
2023/10/26 11:38:08;;;;;;;14.30;8.60;;;13.10;99.90;;;;;;4985699;28;20111;-69
2023/10/26 11:40:33;;;;;;;13.82;8.43;;;13.20;99.90;;;;;;4987488;28;20034;-68
2023/10/26 11:43:02;;;;;;;24.13;13.85;;;13.30;99.90;;;;;;4986306;28;20045;-69
2023/10/26 11:45:29;;;;;;;17.63;10.55;;;13.30;99.90;;;;;;4984497;28;20026;-69
2023/10/26 11:47:58;;;;;;;28.70;14.27;;;13.30;99.90;;;;;;4986345;28;20045;-69
2023/10/26 11:50:26;;;;;;;11.25;6.70;;;13.30;99.90;;;;;;4986660;28;20130;-69
2023/10/26 11:52:54;;;;;;;9.65;6.13;;;13.50;99.90;;;;;;4985530;28;20061;-68
2023/10/26 11:55:21;;;;;;;10.20;6.65;;;13.60;99.90;;;;;;4983178;28;20030;-69
2023/10/26 11:57:47;;;;;;;11.30;6.45;;;13.70;99.90;;;;;;4974475;28;20103;-69
2023/10/26 12:00:15;;;;;;;10.40;7.07;;;13.90;99.90;;;;;;5008763;28;20025;-69
2023/10/26 12:02:41;;;;;;;7.53;4.97;;;14.00;99.90;;;;;;5017515;28;20372;-69
2023/10/26 12:05:07;;;;;;;10.75;5.63;;;14.10;99.90;;;;;;5015249;28;20017;-69
2023/10/26 12:07:33;;;;;;;9.15;6.32;;;14.20;99.90;;;;;;5011923;28;20025;-69
2023/10/26 12:10:02;;;;;;;9.30;6.57;;;14.20;99.90;;;;;;5016603;28;20645;-69
2023/10/26 12:12:27;;;;;;;6.50;4.55;;;14.10;99.90;;;;;;5015162;28;20030;-69
2023/10/26 12:14:53;;;;;;;8.27;5.20;;;14.10;99.90;;;;;;5017419;28;20041;-68
2023/10/26 12:17:18;;;;;;;6.20;3.92;;;14.10;99.90;;;;;;5017405;28;20087;-68
2023/10/26 12:19:44;;;;;;;6.90;4.10;;;14.00;99.90;;;;;;5016940;28;20525;-68
2023/10/26 12:22:09;;;;;;;5.28;4.05;;;14.10;99.90;;;;;;5016731;28;20507;-68
2023/10/26 12:24:36;;;;;;;8.00;4.63;;;13.90;99.90;;;;;;5015951;28;20038;-69
2023/10/26 12:27:01;;;;;;;5.95;4.35;;;13.70;99.90;;;;;;5016779;28;20026;-69
2023/10/26 12:29:27;;;;;;;4.60;3.40;;;13.70;99.90;;;;;;5018096;28;20033;-68
2023/10/26 12:31:53;;;;;;;17.00;8.73;;;13.60;99.90;;;;;;5018022;28;20049;-69